createdAt,value
2019-05-02T00:04:12.375Z,22.60
2019-05-02T00:12:30.935Z,21.70
2019-05-02T00:20:48.501Z,18.50
2019-05-02T00:29:06.005Z,26.57
2019-05-02T00:37:24.584Z,23.33
2019-05-02T00:45:42.643Z,18.97
2019-05-02T00:54:00.076Z,22.40
2019-05-02T01:02:26.525Z,17.50
2019-05-02T01:10:44.027Z,21.37
2019-05-02T01:19:01.550Z,21.40
2019-05-02T01:27:44.004Z,18.77
2019-05-02T01:36:08.815Z,20.10
2019-05-02T01:44:26.329Z,31.43
2019-05-02T01:52:43.810Z,21.10
2019-05-02T02:01:01.410Z,18.20
2019-05-02T02:09:18.855Z,20.05
2019-05-02T02:17:36.288Z,20.27
2019-05-02T02:25:57.729Z,20.37
2019-05-02T02:34:21.403Z,19.33
2019-05-02T02:42:34.947Z,18.20
2019-05-02T02:50:52.562Z,22.00
2019-05-02T02:59:10.112Z,19.57
2019-05-02T03:07:28.982Z,22.07
2019-05-02T03:15:50.582Z,18.90
2019-05-02T03:24:08.037Z,21.67
2019-05-02T03:32:33.120Z,12.20
2019-05-02T03:40:44.837Z,12.87
2019-05-02T03:49:07.840Z,16.30
2019-05-02T03:57:32.404Z,14.33
2019-05-02T04:05:42.242Z,12.50
2019-05-02T04:14:00.032Z,19.77
2019-05-02T04:22:17.974Z,17.30
2019-05-02T04:30:35.848Z,16.20
2019-05-02T04:38:53.380Z,14.70
2019-05-02T04:47:17.065Z,12.90
2019-05-02T04:55:33.202Z,13.20
2019-05-02T05:03:57.415Z,15.23
2019-05-02T05:12:09.000Z,13.97
2019-05-02T05:20:28.016Z,16.23
2019-05-02T05:28:50.650Z,16.33
2019-05-02T05:37:09.411Z,12.53
2019-05-02T05:45:24.646Z,11.70
2019-05-02T05:53:42.097Z,11.40
2019-05-02T06:02:00.205Z,11.47
2019-05-02T06:10:17.691Z,13.40
2019-05-02T06:18:36.510Z,10.23
2019-05-02T06:26:54.627Z,13.30
2019-05-02T06:35:17.106Z,13.73
2019-05-02T06:43:31.967Z,21.33
2019-05-02T06:51:51.029Z,12.82
2019-05-02T07:00:10.154Z,20.47
2019-05-02T07:08:28.855Z,12.63
2019-05-02T07:17:05.360Z,13.10
2019-05-02T07:25:48.216Z,17.40
2019-05-02T07:34:07.955Z,15.93
2019-05-02T07:42:24.877Z,19.30
2019-05-02T07:50:46.579Z,20.70
2019-05-02T07:59:01.521Z,22.33
2019-05-02T08:07:21.113Z,26.50
2019-05-02T08:15:38.257Z,22.20
2019-05-02T08:23:57.161Z,23.47
2019-05-02T08:32:14.908Z,25.97
2019-05-02T08:40:32.650Z,21.33
2019-05-02T08:57:49.585Z,22.27
2019-05-02T09:15:06.397Z,24.90
2019-05-02T09:23:27.565Z,18.23
2019-05-02T09:31:46.030Z,26.43
2019-05-02T09:40:17.001Z,26.70
2019-05-02T09:48:34.569Z,25.50
2019-05-02T09:56:52.515Z,23.33
2019-05-02T10:14:11.783Z,29.20
2019-05-02T10:22:33.723Z,20.70
2019-05-02T10:30:52.700Z,28.17
2019-05-02T10:39:08.075Z,26.20
2019-05-02T10:47:25.605Z,26.10
2019-05-02T10:55:43.201Z,32.03
2019-05-02T11:04:02.173Z,32.93
2019-05-02T11:12:41.926Z,24.45
2019-05-02T11:20:49.885Z,25.33
2019-05-02T11:29:07.364Z,23.90
2019-05-02T11:37:24.836Z,25.20
2019-05-02T11:45:42.518Z,30.67
2019-05-02T11:54:07.600Z,25.80
2019-05-02T12:02:38.688Z,26.30
2019-05-02T12:11:01.228Z,25.67
2019-05-02T12:19:18.738Z,29.10
2019-05-02T12:27:36.192Z,25.60
2019-05-02T12:35:53.699Z,25.85
2019-05-02T12:44:11.726Z,33.30
2019-05-02T12:52:29.500Z,30.80
2019-05-02T13:00:47.086Z,21.30
2019-05-02T13:09:07.460Z,20.33
2019-05-02T13:17:24.899Z,20.60
2019-05-02T13:25:43.555Z,20.30
2019-05-02T13:34:15.664Z,18.90
2019-05-02T13:51:22.215Z,18.90
2019-05-02T13:59:41.542Z,20.47
2019-05-02T14:08:16.272Z,17.48
2019-05-02T14:16:34.015Z,16.93
2019-05-02T14:24:52.000Z,27.60
2019-05-02T14:33:15.316Z,22.93
2019-05-02T14:41:40.884Z,32.13
2019-05-02T14:49:52.304Z,20.40
2019-05-02T14:58:09.904Z,25.10
2019-05-02T15:06:47.556Z,25.13
2019-05-02T15:15:05.857Z,23.40
2019-05-02T15:23:57.995Z,26.17
2019-05-02T15:32:25.444Z,28.30
2019-05-02T15:41:07.096Z,29.70
2019-05-02T15:49:22.814Z,25.82
2019-05-02T15:57:43.722Z,24.67
2019-05-02T16:05:59.473Z,30.70
2019-05-02T16:14:16.991Z,36.80
2019-05-02T16:22:38.176Z,30.83
2019-05-02T16:30:56.267Z,36.05
2019-05-02T16:39:15.378Z,34.38
2019-05-02T16:47:33.153Z,32.70
2019-05-02T16:55:50.624Z,32.30
2019-05-02T17:04:08.077Z,32.57
2019-05-02T17:12:25.872Z,35.67
2019-05-02T17:20:46.821Z,35.07
2019-05-02T17:29:02.994Z,51.47
2019-05-02T17:37:21.643Z,38.77
2019-05-02T17:45:40.283Z,39.53
2019-05-02T17:53:58.015Z,52.10
2019-05-02T18:02:16.035Z,42.27
2019-05-02T18:10:34.084Z,49.77
2019-05-02T18:18:52.223Z,50.13
2019-05-02T18:27:10.096Z,51.98
2019-05-02T18:35:27.720Z,50.73
2019-05-02T18:43:45.454Z,49.33
2019-05-02T18:52:03.112Z,52.57
2019-05-02T19:00:22.749Z,45.27
2019-05-02T19:08:46.824Z,49.30
2019-05-02T19:17:03.710Z,62.20
2019-05-02T19:25:20.434Z,51.40
2019-05-02T19:33:42.613Z,48.17
2019-05-02T19:41:57.801Z,41.73
2019-05-02T19:50:34.732Z,50.33
2019-05-02T19:58:51.802Z,40.33
2019-05-02T20:07:09.353Z,38.50
2019-05-02T20:15:30.227Z,37.30
2019-05-02T20:23:47.448Z,35.70
2019-05-02T20:32:04.927Z,29.10
2019-05-02T20:40:26.546Z,24.17
2019-05-02T20:48:44.542Z,13.87
2019-05-02T20:57:02.559Z,13.47
2019-05-02T21:05:22.720Z,26.53
2019-05-02T21:13:41.857Z,15.93
2019-05-02T21:22:01.685Z,20.03
2019-05-02T21:30:24.690Z,18.27
2019-05-02T21:38:42.732Z,19.50
2019-05-02T21:47:02.484Z,19.07
2019-05-02T21:55:42.883Z,12.53
2019-05-02T22:04:02.290Z,21.33
2019-05-02T22:12:19.939Z,6.60
2019-05-02T22:20:37.474Z,8.50
2019-05-02T22:28:54.940Z,9.10
2019-05-02T22:37:14.008Z,5.87
2019-05-02T22:45:32.226Z,6.73
2019-05-02T22:53:49.828Z,8.08
2019-05-02T23:02:07.260Z,7.10
2019-05-02T23:10:24.783Z,6.60
2019-05-02T23:18:42.598Z,6.50
2019-05-02T23:27:16.817Z,4.27
2019-05-02T23:35:34.416Z,6.20
2019-05-02T23:43:52.529Z,10.23
2019-05-02T23:52:11.662Z,6.53
